createdAt,value
2023-03-01T00:00:29.159Z,83.99
2023-03-01T00:03:02.225Z,85.15
2023-03-01T00:05:36.287Z,85.63
2023-03-01T00:08:10.593Z,85.90
2023-03-01T00:10:43.533Z,85.90
2023-03-01T00:13:16.525Z,86.63
2023-03-01T00:15:49.920Z,86.45
2023-03-01T00:18:23.546Z,86.53
2023-03-01T00:20:58.404Z,85.97
2023-03-01T00:23:32.953Z,86.23
2023-03-01T00:26:09.165Z,85.66
2023-03-01T00:28:43.590Z,84.93
2023-03-01T00:31:19.317Z,84.08
2023-03-01T00:33:58.389Z,84.33
2023-03-01T00:36:34.312Z,84.26
2023-03-01T00:39:13.944Z,84.57
2023-03-01T00:41:47.012Z,84.61
2023-03-01T00:44:20.090Z,84.66
2023-03-01T00:46:53.040Z,83.82
2023-03-01T00:49:28.625Z,84.89
2023-03-01T00:52:02.877Z,84.08
2023-03-01T00:54:37.043Z,84.15
2023-03-01T00:57:09.909Z,83.02
2023-03-01T00:59:42.733Z,82.86
2023-03-01T01:02:15.791Z,82.64
2023-03-01T01:04:49.815Z,83.18
2023-03-01T01:07:22.672Z,83.05
2023-03-01T01:09:57.086Z,83.51
2023-03-01T01:12:30.365Z,83.02
2023-03-01T01:15:03.552Z,83.72
2023-03-01T01:17:36.396Z,84.52
2023-03-01T01:20:10.783Z,85.11
2023-03-01T01:22:43.633Z,85.28
2023-03-01T01:25:19.936Z,85.36
2023-03-01T01:27:52.892Z,84.96
2023-03-01T01:30:25.902Z,84.73
2023-03-01T01:32:58.993Z,85.10
2023-03-01T01:35:32.212Z,84.81
2023-03-01T01:38:05.110Z,84.26
2023-03-01T01:40:45.684Z,84.81
2023-03-01T01:43:24.877Z,84.14
2023-03-01T01:46:01.169Z,84.26
2023-03-01T01:48:42.413Z,83.98
2023-03-01T01:51:20.072Z,83.30
2023-03-01T01:53:58.133Z,83.18
2023-03-01T01:56:32.881Z,82.77
2023-03-01T01:59:06.290Z,82.68
2023-03-01T02:01:39.117Z,83.52
2023-03-01T02:04:12.538Z,84.94
2023-03-01T02:06:52.106Z,84.41
2023-03-01T02:09:25.970Z,85.08
2023-03-01T02:12:01.228Z,84.32
2023-03-01T02:14:34.079Z,83.74
2023-03-01T02:17:07.221Z,83.54
2023-03-01T02:19:55.803Z,83.72
2023-03-01T02:22:32.525Z,83.57
2023-03-01T02:25:15.115Z,83.32
2023-03-01T02:27:58.365Z,84.39
2023-03-01T02:30:34.306Z,85.22
2023-03-01T02:33:06.348Z,86.01
2023-03-01T02:35:41.121Z,85.77
2023-03-01T02:38:14.100Z,85.63
2023-03-01T02:40:49.071Z,86.16
2023-03-01T02:43:25.162Z,87.13
2023-03-01T02:46:05.404Z,87.86
2023-03-01T02:48:45.092Z,87.87
2023-03-01T02:51:42.632Z,87.70
2023-03-01T02:54:26.070Z,88.61
2023-03-01T02:56:59.797Z,88.17
2023-03-01T02:59:40.363Z,87.71
2023-03-01T03:02:37.184Z,86.98
2023-03-01T03:05:37.165Z,85.92
2023-03-01T03:08:10.562Z,85.37
2023-03-01T03:10:44.946Z,85.47
2023-03-01T03:13:18.167Z,85.96
2023-03-01T03:15:51.489Z,86.29
2023-03-01T03:18:27.722Z,86.28
2023-03-01T03:21:00.909Z,86.72
2023-03-01T03:23:33.995Z,87.39
2023-03-01T03:26:07.843Z,87.58
2023-03-01T03:28:41.042Z,87.89
2023-03-01T03:31:14.000Z,87.88
2023-03-01T03:33:48.198Z,87.70
2023-03-01T03:36:25.826Z,86.43
2023-03-01T03:38:59.090Z,86.33
2023-03-01T03:41:32.034Z,86.06
2023-03-01T03:44:04.965Z,85.89
2023-03-01T03:46:37.983Z,85.96
2023-03-01T03:49:12.277Z,85.87
2023-03-01T03:51:47.334Z,86.20
2023-03-01T03:54:20.221Z,85.85
2023-03-01T03:56:53.442Z,86.24
2023-03-01T03:59:26.518Z,87.51
2023-03-01T04:01:59.428Z,88.56
2023-03-01T04:04:34.700Z,89.21
2023-03-01T04:07:07.694Z,88.93
2023-03-01T04:09:40.584Z,88.39
2023-03-01T04:12:13.416Z,87.64
2023-03-01T04:14:47.978Z,87.20
2023-03-01T04:17:21.530Z,86.96
2023-03-01T04:19:55.641Z,86.21
2023-03-01T04:22:30.585Z,86.16
2023-03-01T04:25:07.233Z,85.87
2023-03-01T04:27:40.037Z,85.09
2023-03-01T04:30:13.759Z,83.21
2023-03-01T04:32:46.646Z,82.60
2023-03-01T04:35:21.643Z,82.10
2023-03-01T04:37:54.398Z,81.92
2023-03-01T04:40:27.634Z,81.68
2023-03-01T04:43:00.750Z,81.57
2023-03-01T04:45:35.846Z,81.30
2023-03-01T04:48:08.798Z,82.19
2023-03-01T04:50:43.299Z,81.84
2023-03-01T04:53:16.243Z,82.12
2023-03-01T04:55:49.013Z,81.78
2023-03-01T04:58:21.775Z,81.68
2023-03-01T05:00:56.632Z,81.72
2023-03-01T05:03:29.875Z,82.86
2023-03-01T05:06:04.176Z,82.96
2023-03-01T05:08:38.974Z,83.16
2023-03-01T05:11:12.794Z,82.99
2023-03-01T05:13:45.573Z,83.63
2023-03-01T05:16:18.953Z,83.81
2023-03-01T05:18:52.489Z,83.69
2023-03-01T05:21:27.461Z,83.69
2023-03-01T05:24:00.521Z,83.12
2023-03-01T05:26:33.966Z,83.36
2023-03-01T05:29:06.873Z,83.04
2023-03-01T05:31:40.586Z,83.65
2023-03-01T05:34:13.880Z,83.66
2023-03-01T05:36:48.097Z,84.92
2023-03-01T05:39:23.423Z,85.31
2023-03-01T05:41:57.860Z,85.58
2023-03-01T05:44:32.091Z,85.67
2023-03-01T05:47:05.161Z,86.81
2023-03-01T05:49:39.740Z,87.40
2023-03-01T05:52:14.216Z,88.46
2023-03-01T05:54:47.242Z,87.91
2023-03-01T05:57:20.089Z,86.89
2023-03-01T05:59:52.913Z,85.68
2023-03-01T06:02:25.916Z,85.41
2023-03-01T06:04:59.226Z,85.60
2023-03-01T06:07:33.558Z,85.71
2023-03-01T06:10:08.324Z,85.50
2023-03-01T06:12:43.237Z,85.51
2023-03-01T06:15:18.243Z,84.78
2023-03-01T06:17:51.791Z,84.57
2023-03-01T06:20:26.563Z,84.45
2023-03-01T06:23:01.795Z,84.56
2023-03-01T06:25:34.681Z,84.91
2023-03-01T06:28:07.840Z,85.07
2023-03-01T06:30:40.706Z,84.82
2023-03-01T06:33:14.161Z,84.98
2023-03-01T06:35:47.025Z,85.53
2023-03-01T06:38:21.419Z,84.74
2023-03-01T06:40:55.809Z,85.29
2023-03-01T06:43:29.052Z,85.77
2023-03-01T06:46:02.361Z,86.21
2023-03-01T06:48:35.678Z,86.00
2023-03-01T06:51:08.695Z,85.33
2023-03-01T06:53:43.322Z,84.45
2023-03-01T06:56:16.236Z,84.56
2023-03-01T06:58:49.513Z,85.43
2023-03-01T07:01:22.601Z,85.82
2023-03-01T07:03:55.831Z,85.92
2023-03-01T07:06:30.976Z,85.96
2023-03-01T07:09:05.555Z,86.98
2023-03-01T07:11:38.760Z,87.98
2023-03-01T07:14:11.685Z,88.69
2023-03-01T07:16:44.598Z,89.02
2023-03-01T07:19:17.587Z,89.25
2023-03-01T07:21:50.735Z,89.64
2023-03-01T07:24:25.116Z,89.51
2023-03-01T07:26:57.947Z,88.58
2023-03-01T07:29:31.205Z,88.41
2023-03-01T07:32:04.477Z,88.29
2023-03-01T07:34:37.469Z,87.98
2023-03-01T07:37:10.395Z,86.87
2023-03-01T07:39:44.526Z,87.19
2023-03-01T07:42:17.322Z,86.00
2023-03-01T07:44:50.171Z,85.77
2023-03-01T07:47:22.923Z,85.20
2023-03-01T07:49:55.670Z,84.16
2023-03-01T07:52:28.813Z,83.73
2023-03-01T07:55:03.025Z,83.26
2023-03-01T07:57:35.889Z,82.58
2023-03-01T08:00:12.437Z,82.31
2023-03-01T08:02:45.329Z,81.60
2023-03-01T08:05:18.803Z,80.92
2023-03-01T08:07:51.727Z,80.39
2023-03-01T08:10:26.004Z,79.65
2023-03-01T08:12:59.209Z,79.49
2023-03-01T08:15:31.987Z,78.04
2023-03-01T08:18:04.888Z,77.22
2023-03-01T08:20:37.682Z,74.91
2023-03-01T08:23:10.610Z,74.54
2023-03-01T08:25:44.930Z,72.99
2023-03-01T08:28:17.728Z,72.34
2023-03-01T08:30:50.556Z,71.76
2023-03-01T08:33:24.329Z,70.55
2023-03-01T08:36:05.161Z,69.96
2023-03-01T08:38:37.900Z,69.05
2023-03-01T08:41:12.154Z,68.83
2023-03-01T08:43:47.170Z,67.65
2023-03-01T08:46:19.934Z,67.29
2023-03-01T08:48:52.685Z,66.20
2023-03-01T08:51:27.277Z,65.85
2023-03-01T08:54:00.101Z,65.54
2023-03-01T08:56:35.208Z,65.57
2023-03-01T08:59:08.530Z,64.97
2023-03-01T09:01:44.265Z,64.36
2023-03-01T09:04:18.120Z,64.26
2023-03-01T09:06:51.149Z,63.26
2023-03-01T09:09:24.278Z,64.02
2023-03-01T09:11:58.884Z,62.74
2023-03-01T09:14:31.772Z,62.00
2023-03-01T09:17:04.639Z,63.13
2023-03-01T09:19:37.500Z,61.79
2023-03-01T09:22:10.218Z,61.77
2023-03-01T09:24:43.051Z,60.21
2023-03-01T09:27:19.698Z,61.04
2023-03-01T09:29:52.624Z,59.75
2023-03-01T09:32:25.456Z,59.94
2023-03-01T09:35:05.838Z,60.34
2023-03-01T09:37:39.422Z,59.21
2023-03-01T09:40:17.290Z,59.97
2023-03-01T09:42:57.948Z,59.16
2023-03-01T09:45:37.058Z,57.83
2023-03-01T09:48:18.197Z,59.07
2023-03-01T09:50:51.322Z,57.67
2023-03-01T09:53:28.628Z,56.80
2023-03-01T09:56:07.040Z,56.58
2023-03-01T09:58:53.587Z,56.69
2023-03-01T10:01:35.683Z,56.94
2023-03-01T10:04:28.269Z,56.80
2023-03-01T10:07:20.173Z,56.81
2023-03-01T10:09:53.024Z,56.69
2023-03-01T10:12:32.919Z,57.28
2023-03-01T10:15:13.574Z,56.23
2023-03-01T10:17:52.323Z,56.37
2023-03-01T10:20:27.410Z,56.27
2023-03-01T10:23:00.308Z,56.15
2023-03-01T10:25:46.881Z,57.04
2023-03-01T10:28:26.670Z,55.80
2023-03-01T10:31:01.903Z,56.42
2023-03-01T10:33:40.601Z,56.25
2023-03-01T10:36:13.585Z,54.93
2023-03-01T10:38:53.316Z,55.47
2023-03-01T10:41:30.680Z,53.81
2023-03-01T10:44:03.832Z,54.52
2023-03-01T10:46:39.535Z,53.52
2023-03-01T10:49:17.228Z,53.92
2023-03-01T10:51:51.745Z,54.22
2023-03-01T10:54:29.047Z,53.35
2023-03-01T10:57:05.184Z,53.32
2023-03-01T10:59:40.276Z,53.09
2023-03-01T11:02:25.699Z,52.71
2023-03-01T11:05:00.954Z,51.63
2023-03-01T11:07:49.265Z,51.64
2023-03-01T11:10:25.607Z,52.99
2023-03-01T11:13:09.386Z,52.22
2023-03-01T11:15:42.606Z,52.38
2023-03-01T11:18:40.551Z,52.08
2023-03-01T11:21:18.242Z,52.93
2023-03-01T11:23:51.546Z,52.27
2023-03-01T11:26:25.439Z,51.63
2023-03-01T11:29:04.354Z,51.34
2023-03-01T11:31:40.448Z,51.60
2023-03-01T11:34:25.892Z,51.24
2023-03-01T11:37:03.734Z,51.41
2023-03-01T11:39:43.046Z,51.06
2023-03-01T11:42:21.835Z,51.30
2023-03-01T11:44:58.144Z,51.91
2023-03-01T11:47:45.163Z,50.38
2023-03-01T11:50:28.821Z,51.95
2023-03-01T11:53:23.931Z,50.44
2023-03-01T11:56:07.502Z,50.43
2023-03-01T11:59:25.348Z,49.54
2023-03-01T12:02:18.585Z,50.16
2023-03-01T12:05:15.883Z,50.58
2023-03-01T12:07:58.072Z,48.84
2023-03-01T12:10:35.829Z,50.01
2023-03-01T12:13:31.735Z,50.39
2023-03-01T12:16:38.374Z,49.61
2023-03-01T12:19:39.454Z,49.91
2023-03-01T12:22:28.047Z,50.02
2023-03-01T12:25:22.990Z,49.22
2023-03-01T12:28:14.141Z,50.20
2023-03-01T12:31:15.195Z,49.98
2023-03-01T12:33:54.788Z,49.77
2023-03-01T12:36:44.353Z,49.95
2023-03-01T12:39:33.310Z,48.97
2023-03-01T12:42:19.822Z,50.58
2023-03-01T12:45:14.695Z,49.24
2023-03-01T12:48:02.312Z,48.46
2023-03-01T12:50:42.181Z,49.55
2023-03-01T12:53:25.094Z,48.06
2023-03-01T12:56:02.666Z,48.52
2023-03-01T12:58:49.974Z,49.62
2023-03-01T13:01:33.863Z,49.08
2023-03-01T13:04:30.333Z,49.39
2023-03-01T13:07:28.304Z,49.28
2023-03-01T13:10:20.559Z,49.14
2023-03-01T13:13:02.878Z,49.46
2023-03-01T13:15:38.715Z,49.73
2023-03-01T13:18:31.800Z,49.17
2023-03-01T13:21:06.639Z,49.38
2023-03-01T13:23:41.175Z,48.87
2023-03-01T13:26:17.336Z,49.09
2023-03-01T13:28:56.978Z,48.48
2023-03-01T13:32:09.278Z,49.71
2023-03-01T13:34:47.203Z,48.70
2023-03-01T13:37:35.125Z,48.38
2023-03-01T13:40:41.747Z,48.40
2023-03-01T13:43:34.090Z,48.71
2023-03-01T13:46:13.579Z,48.00
2023-03-01T13:48:51.793Z,48.20
2023-03-01T13:51:29.908Z,48.44
2023-03-01T13:54:02.865Z,47.55
2023-03-01T13:56:38.858Z,48.20
2023-03-01T13:59:17.315Z,47.86
2023-03-01T14:01:54.857Z,47.62
2023-03-01T14:04:29.784Z,48.53
2023-03-01T14:07:19.727Z,48.83
2023-03-01T14:09:58.049Z,48.88
2023-03-01T14:12:47.045Z,48.84
2023-03-01T14:15:24.637Z,47.82
2023-03-01T14:18:06.215Z,47.86
2023-03-01T14:20:43.363Z,47.51
2023-03-01T14:23:21.542Z,48.17
2023-03-01T14:25:57.077Z,47.25
2023-03-01T14:28:34.593Z,48.00
2023-03-01T14:31:38.434Z,48.09
2023-03-01T14:34:21.662Z,48.06
2023-03-01T14:36:54.450Z,48.94
2023-03-01T14:39:28.896Z,48.59
2023-03-01T14:42:14.118Z,49.59
2023-03-01T14:44:51.079Z,48.65
2023-03-01T14:47:29.616Z,49.10
2023-03-01T14:50:06.839Z,49.87
2023-03-01T14:52:42.182Z,49.25
2023-03-01T14:55:20.320Z,49.13
2023-03-01T14:57:53.748Z,49.31
2023-03-01T15:00:29.318Z,49.50
2023-03-01T15:03:10.874Z,49.33
2023-03-01T15:05:45.455Z,50.51
2023-03-01T15:08:22.212Z,50.19
2023-03-01T15:11:03.781Z,50.49
2023-03-01T15:13:37.847Z,50.24
2023-03-01T15:16:14.427Z,50.45
2023-03-01T15:18:50.048Z,50.98
2023-03-01T15:21:26.497Z,50.63
2023-03-01T15:24:04.746Z,50.35
2023-03-01T15:26:42.377Z,50.78
2023-03-01T15:29:20.549Z,51.05
2023-03-01T15:31:58.143Z,50.98
2023-03-01T15:34:33.263Z,51.07
2023-03-01T15:37:09.666Z,50.37
2023-03-01T15:39:45.188Z,51.42
2023-03-01T15:42:39.798Z,52.16
2023-03-01T15:45:23.015Z,51.48
2023-03-01T15:47:58.800Z,51.18
2023-03-01T15:50:34.588Z,51.20
2023-03-01T15:53:12.077Z,51.54
2023-03-01T15:55:46.489Z,51.65
2023-03-01T15:58:22.848Z,52.36
2023-03-01T16:01:01.189Z,52.12
2023-03-01T16:03:34.666Z,52.54
2023-03-01T16:06:07.959Z,52.72
2023-03-01T16:08:41.489Z,52.41
2023-03-01T16:11:18.257Z,52.96
2023-03-01T16:13:52.868Z,53.30
2023-03-01T16:16:26.088Z,53.37
2023-03-01T16:18:58.960Z,53.33
2023-03-01T16:21:32.454Z,53.78
2023-03-01T16:24:06.208Z,54.24
2023-03-01T16:26:39.906Z,54.37
2023-03-01T16:29:14.221Z,54.51
2023-03-01T16:31:48.027Z,54.70
2023-03-01T16:34:22.981Z,55.55
2023-03-01T16:36:55.793Z,54.67
2023-03-01T16:39:29.002Z,55.22
2023-03-01T16:42:02.214Z,55.40
2023-03-01T16:44:36.535Z,56.14
2023-03-01T16:47:09.808Z,56.11
2023-03-01T16:49:42.741Z,55.43
2023-03-01T16:52:15.694Z,55.82
2023-03-01T16:54:48.836Z,56.67
2023-03-01T16:57:21.880Z,55.97
2023-03-01T16:59:56.303Z,56.64
2023-03-01T17:02:29.600Z,57.59
2023-03-01T17:05:02.971Z,57.72
2023-03-01T17:07:36.784Z,58.63
2023-03-01T17:10:12.214Z,59.07
2023-03-01T17:12:44.937Z,59.28
2023-03-01T17:15:19.383Z,59.08
2023-03-01T17:17:52.308Z,59.95
2023-03-01T17:20:25.140Z,58.60
2023-03-01T17:22:58.709Z,59.39
2023-03-01T17:25:31.857Z,60.33
2023-03-01T17:28:04.754Z,60.55
2023-03-01T17:30:38.999Z,60.91
2023-03-01T17:33:12.401Z,61.19
2023-03-01T17:35:47.274Z,61.29
2023-03-01T17:38:20.434Z,61.67
2023-03-01T17:40:53.372Z,62.45
2023-03-01T17:43:26.155Z,62.21
2023-03-01T17:46:00.503Z,63.19
2023-03-01T17:48:33.422Z,63.54
2023-03-01T17:51:11.281Z,62.91
2023-03-01T17:53:52.650Z,63.72
2023-03-01T17:56:25.526Z,64.04
2023-03-01T17:58:58.429Z,64.41
2023-03-01T18:01:33.807Z,64.68
2023-03-01T18:04:07.253Z,64.73
2023-03-01T18:06:41.272Z,65.55
2023-03-01T18:09:14.893Z,65.47
2023-03-01T18:11:47.980Z,65.56
2023-03-01T18:14:21.205Z,66.07
2023-03-01T18:16:55.533Z,66.34
2023-03-01T18:19:28.819Z,66.88
2023-03-01T18:22:01.692Z,66.89
2023-03-01T18:24:34.488Z,67.10
2023-03-01T18:27:07.379Z,67.99
2023-03-01T18:29:40.266Z,68.27
2023-03-01T18:32:14.466Z,68.63
2023-03-01T18:34:48.422Z,68.32
2023-03-01T18:37:21.164Z,68.49
2023-03-01T18:39:54.391Z,68.71
2023-03-01T18:42:27.323Z,68.60
2023-03-01T18:45:00.717Z,68.45
2023-03-01T18:47:35.232Z,69.07
2023-03-01T18:50:09.197Z,69.43
2023-03-01T18:52:42.024Z,69.84
2023-03-01T18:55:14.871Z,70.19
2023-03-01T18:57:48.031Z,70.46
2023-03-01T19:00:22.179Z,70.45
2023-03-01T19:02:57.565Z,69.97
2023-03-01T19:05:30.775Z,70.22
2023-03-01T19:08:03.908Z,70.85
2023-03-01T19:10:37.186Z,71.83
2023-03-01T19:13:11.167Z,70.96
2023-03-01T19:15:44.744Z,72.19
2023-03-01T19:18:19.878Z,72.35
2023-03-01T19:21:03.829Z,72.68
2023-03-01T19:23:38.482Z,73.39
2023-03-01T19:26:13.537Z,72.94
2023-03-01T19:28:46.811Z,72.44
2023-03-01T19:31:23.481Z,73.13
2023-03-01T19:34:10.361Z,73.22
2023-03-01T19:36:45.405Z,73.69
2023-03-01T19:39:18.547Z,72.86
2023-03-01T19:41:52.058Z,73.46
2023-03-01T19:44:25.151Z,73.71
2023-03-01T19:46:58.735Z,73.17
2023-03-01T19:49:33.208Z,73.74
2023-03-01T19:52:06.243Z,73.32
2023-03-01T19:54:39.100Z,73.80
2023-03-01T19:57:14.348Z,74.41
2023-03-01T19:59:47.408Z,74.26
2023-03-01T20:02:20.543Z,74.14
2023-03-01T20:04:54.779Z,75.12
2023-03-01T20:07:27.610Z,75.29
2023-03-01T20:10:00.444Z,76.07
2023-03-01T20:12:33.383Z,76.01
2023-03-01T20:15:07.362Z,75.60
2023-03-01T20:17:40.390Z,76.34
2023-03-01T20:20:16.072Z,75.20
2023-03-01T20:22:48.926Z,75.33
2023-03-01T20:25:21.960Z,76.16
2023-03-01T20:27:54.803Z,76.71
2023-03-01T20:30:28.272Z,76.75
2023-03-01T20:33:01.088Z,76.77
2023-03-01T20:35:36.167Z,77.15
2023-03-01T20:38:09.146Z,77.36
2023-03-01T20:40:42.153Z,77.85
2023-03-01T20:43:14.938Z,77.69
2023-03-01T20:45:47.735Z,77.61
2023-03-01T20:48:20.584Z,77.97
2023-03-01T20:50:56.756Z,77.53
2023-03-01T20:53:29.625Z,77.87
2023-03-01T20:56:03.609Z,78.08
2023-03-01T20:58:36.566Z,78.17
2023-03-01T21:01:11.837Z,77.88
2023-03-01T21:03:44.808Z,77.76
2023-03-01T21:06:19.055Z,78.11
2023-03-01T21:08:52.860Z,78.09
2023-03-01T21:11:26.085Z,77.86
2023-03-01T21:13:59.292Z,78.28
2023-03-01T21:16:33.421Z,78.28
2023-03-01T21:19:06.539Z,78.54
2023-03-01T21:21:40.810Z,78.61
2023-03-01T21:24:13.983Z,78.93
2023-03-01T21:26:47.010Z,79.27
2023-03-01T21:29:19.878Z,79.02
2023-03-01T21:31:52.894Z,79.19
2023-03-01T21:34:25.865Z,79.65
2023-03-01T21:37:01.522Z,79.37
2023-03-01T21:39:34.888Z,79.08
2023-03-01T21:42:07.871Z,79.21
2023-03-01T21:44:40.668Z,79.92
2023-03-01T21:47:13.466Z,80.87
2023-03-01T21:49:46.410Z,81.08
2023-03-01T21:52:20.717Z,81.55
2023-03-01T21:54:55.337Z,82.04
2023-03-01T21:57:28.618Z,82.26
2023-03-01T22:00:01.549Z,82.38
2023-03-01T22:02:34.680Z,82.11
2023-03-01T22:05:08.775Z,82.07
2023-03-01T22:07:43.218Z,82.13
2023-03-01T22:10:16.198Z,82.27
2023-03-01T22:12:50.840Z,82.29
2023-03-01T22:15:25.226Z,81.96
2023-03-01T22:17:58.821Z,82.35
2023-03-01T22:20:31.630Z,81.79
2023-03-01T22:23:05.914Z,82.29
2023-03-01T22:25:43.234Z,83.01
2023-03-01T22:28:17.242Z,82.18
2023-03-01T22:30:50.029Z,82.47
2023-03-01T22:33:23.062Z,82.32
2023-03-01T22:35:56.468Z,82.38
2023-03-01T22:38:30.917Z,82.43
2023-03-01T22:41:05.668Z,82.48
2023-03-01T22:43:39.526Z,82.78
2023-03-01T22:46:16.051Z,82.56
2023-03-01T22:48:52.566Z,81.95
2023-03-01T22:51:28.598Z,82.10
2023-03-01T22:54:06.655Z,82.82
2023-03-01T22:56:40.250Z,82.56
2023-03-01T22:59:15.616Z,82.42
2023-03-01T23:01:48.635Z,82.43
2023-03-01T23:04:23.020Z,82.54
2023-03-01T23:06:55.925Z,82.27
2023-03-01T23:09:32.688Z,81.59
2023-03-01T23:12:09.244Z,82.53
2023-03-01T23:14:42.497Z,83.25
2023-03-01T23:17:16.056Z,83.35
2023-03-01T23:19:51.627Z,84.02
2023-03-01T23:22:25.337Z,83.74
2023-03-01T23:24:59.673Z,83.49
2023-03-01T23:27:32.603Z,83.13
2023-03-01T23:30:06.448Z,83.15
2023-03-01T23:32:40.848Z,82.80
2023-03-01T23:35:14.285Z,82.91
2023-03-01T23:37:47.114Z,83.04
2023-03-01T23:40:21.729Z,82.97
2023-03-01T23:42:54.544Z,82.69
2023-03-01T23:45:27.367Z,82.40
2023-03-01T23:48:00.612Z,82.51
2023-03-01T23:50:41.678Z,82.72
2023-03-01T23:53:17.153Z,82.43
2023-03-01T23:55:55.411Z,82.32
2023-03-01T23:58:29.410Z,82.27
